Time;durP1;ratioP1;P1;durP2;ratioP2;P2;SDS_P1;SDS_P2;PMS_P1;PMS_P2;Temp;Humidity;BMP_temperature;BMP_pressure;BME280_temperature;BME280_humidity;BME280_pressure;Samples;Min_cycle;Max_cycle;Signal;HPM_P1;HPM_P2
2021/07/13 00:00:14;;;;;;;19.13;17.20;;;;;24.30;99819.00;;;;2058044;28;20618;-65
2021/07/13 00:01:14;;;;;;;18.13;16.33;;;;;24.30;99811.00;;;;2058618;28;20318;-65
2021/07/13 00:02:14;;;;;;;18.33;16.63;;;;;24.30;99813.00;;;;2058337;28;20218;-65
2021/07/13 00:03:15;;;;;;;17.93;16.23;;;;;24.30;99812.00;;;;2058903;28;20235;-65
2021/07/13 00:04:15;;;;;;;19.23;17.23;;;;;24.30;99806.00;;;;2058362;28;20293;-64
2021/07/13 00:05:17;;;;;;;19.03;17.23;;;;;24.30;99806.00;;;;2058919;28;20221;-65
2021/07/13 00:06:17;;;;;;;18.17;16.27;;;;;24.30;99805.00;;;;2059984;28;20219;-65
2021/07/13 00:07:17;;;;;;;18.00;16.20;;;;;24.30;99811.00;;;;2059031;28;20582;-65
2021/07/13 00:08:18;;;;;;;17.10;15.50;;;;;24.30;99808.00;;;;2057385;28;21005;-65
2021/07/13 00:09:19;;;;;;;18.93;17.23;;;;;24.30;99805.00;;;;2057815;28;20736;-65
2021/07/13 00:10:21;;;;;;;17.95;16.20;;;;;24.20;99810.00;;;;2039677;28;20208;-65
2021/07/13 00:11:21;;;;;;;18.48;16.73;;;;;24.30;99803.00;;;;2050145;28;20593;-65
2021/07/13 00:12:22;;;;;;;17.73;16.13;;;;;24.30;99810.00;;;;2057898;28;20218;-65
2021/07/13 00:13:22;;;;;;;16.73;15.13;;;;;24.30;99818.00;;;;2057848;28;20314;-65
2021/07/13 00:14:23;;;;;;;17.87;16.23;;;;;24.30;99812.00;;;;2057767;28;20219;-65
2021/07/13 00:15:34;;;;;;;18.07;16.37;;;;;24.30;99819.00;;;;2057386;28;20211;-65
2021/07/13 00:16:35;;;;;;;17.65;15.85;;;;;24.30;99822.00;;;;2058369;28;20245;-65
2021/07/13 00:17:35;;;;;;;16.67;15.07;;;;;24.30;99812.00;;;;2058051;28;20208;-65
2021/07/13 00:18:37;;;;;;;17.53;15.87;;;;;24.30;99811.00;;;;2058383;28;20212;-65
2021/07/13 00:19:37;;;;;;;17.48;15.77;;;;;24.30;99812.00;;;;2059033;28;20212;-65
2021/07/13 00:20:38;;;;;;;15.87;14.37;;;;;24.30;99826.00;;;;2058628;28;20891;-65
2021/07/13 00:21:38;;;;;;;17.13;15.53;;;;;24.30;99813.00;;;;2059088;28;20218;-65
2021/07/13 00:22:40;;;;;;;17.37;15.67;;;;;24.30;99813.00;;;;2059089;28;20238;-65
2021/07/13 00:23:40;;;;;;;15.80;14.30;;;;;24.30;99813.00;;;;2058385;28;20215;-65
2021/07/13 00:24:40;;;;;;;16.90;15.20;;;;;24.30;99820.00;;;;2058123;28;20239;-65
2021/07/13 00:25:41;;;;;;;15.87;14.37;;;;;24.30;99820.00;;;;2058195;28;20733;-65
2021/07/13 00:26:41;;;;;;;15.93;14.43;;;;;24.30;99820.00;;;;2058324;28;20215;-65
2021/07/13 00:27:42;;;;;;;15.43;14.00;;;;;24.30;99825.00;;;;2058947;28;20219;-65
2021/07/13 00:28:42;;;;;;;16.13;14.73;;;;;24.30;99826.00;;;;2059094;28;20671;-65
2021/07/13 00:29:42;;;;;;;15.83;14.33;;;;;24.30;99824.00;;;;2058959;28;20223;-65
2021/07/13 00:30:43;;;;;;;16.40;14.80;;;;;24.30;99827.00;;;;2057056;28;20223;-65
2021/07/13 00:31:43;;;;;;;16.27;14.73;;;;;24.30;99819.00;;;;2058597;28;20218;-65
2021/07/13 00:32:43;;;;;;;16.13;14.50;;;;;24.30;99826.00;;;;2058395;28;20215;-65
2021/07/13 00:33:44;;;;;;;15.87;14.47;;;;;24.30;99834.00;;;;2058392;28;20225;-65
2021/07/13 00:34:44;;;;;;;16.17;14.57;;;;;24.30;99830.00;;;;2061686;28;20218;-65
2021/07/13 00:35:44;;;;;;;15.80;14.20;;;;;24.30;99832.00;;;;2059236;28;20218;-65
2021/07/13 00:36:45;;;;;;;16.47;14.87;;;;;24.30;99829.00;;;;2059238;28;20211;-65
2021/07/13 00:37:46;;;;;;;15.73;14.13;;;;;24.30;99831.00;;;;2058376;28;20222;-65
2021/07/13 00:38:46;;;;;;;14.65;13.35;;;;;24.30;99829.00;;;;2058661;28;20218;-65
2021/07/13 00:39:47;;;;;;;15.10;13.70;;;;;24.30;99834.00;;;;2057733;28;20644;-65
2021/07/13 00:40:47;;;;;;;15.30;13.87;;;;;24.30;99838.00;;;;2057534;28;20225;-65
2021/07/13 00:41:47;;;;;;;15.47;14.07;;;;;24.30;99838.00;;;;2058266;28;20245;-65
2021/07/13 00:42:48;;;;;;;15.13;13.73;;;;;24.30;99839.00;;;;2058189;28;20226;-65
2021/07/13 00:43:49;;;;;;;15.18;13.60;;;;;24.30;99839.00;;;;2058057;28;20211;-65
2021/07/13 00:44:49;;;;;;;16.27;14.70;;;;;24.30;99836.00;;;;2058832;28;20219;-65
2021/07/13 00:45:50;;;;;;;14.87;13.47;;;;;24.30;99847.00;;;;2059086;28;20222;-65
2021/07/13 00:46:50;;;;;;;15.33;13.80;;;;;24.30;99845.00;;;;2059065;28;20222;-65
2021/07/13 00:47:51;;;;;;;15.03;13.63;;;;;24.30;99849.00;;;;2042442;29;20671;-65
2021/07/13 00:48:51;;;;;;;14.63;13.25;;;;;24.30;99851.00;;;;2041964;28;20220;-65
2021/07/13 00:49:52;;;;;;;13.97;12.70;;;;;24.30;99848.00;;;;2041654;29;20303;-65
2021/07/13 00:50:53;;;;;;;14.90;13.50;;;;;24.30;99847.00;;;;2040910;29;20224;-65
2021/07/13 00:51:53;;;;;;;14.57;13.27;;;;;24.30;99845.00;;;;2057812;28;20246;-66
2021/07/13 00:52:57;;;;;;;13.87;12.57;;;;;24.30;99846.00;;;;2049446;28;20718;-65
2021/07/13 00:53:57;;;;;;;14.77;13.35;;;;;24.30;99852.00;;;;2050705;28;20231;-65
2021/07/13 00:54:58;;;;;;;13.70;12.40;;;;;24.30;99849.00;;;;2042488;29;20766;-65
2021/07/13 00:55:58;;;;;;;15.47;13.97;;;;;24.30;99849.00;;;;2042427;29;20727;-65
2021/07/13 00:56:59;;;;;;;14.60;13.13;;;;;24.30;99850.00;;;;2050082;28;20215;-65
2021/07/13 00:57:59;;;;;;;14.50;13.20;;;;;24.30;99844.00;;;;2058117;28;20215;-65
2021/07/13 00:58:59;;;;;;;14.13;12.83;;;;;24.30;99850.00;;;;2058269;28;20214;-65
2021/07/13 01:00:00;;;;;;;14.33;13.03;;;;;24.30;99843.00;;;;2050939;28;20204;-65
2021/07/13 01:01:00;;;;;;;14.00;12.70;;;;;24.30;99838.00;;;;2050692;28;20295;-65
2021/07/13 01:02:00;;;;;;;12.43;11.33;;;;;24.30;99838.00;;;;2060565;28;20208;-65
2021/07/13 01:03:01;;;;;;;13.50;12.30;;;;;24.30;99846.00;;;;2060627;28;20218;-65
2021/07/13 01:04:02;;;;;;;13.25;12.00;;;;;24.30;99838.00;;;;2052018;28;20634;-65
2021/07/13 01:05:09;;;;;;;13.30;12.10;;;;;24.30;99835.00;;;;2057411;28;20335;-65
2021/07/13 01:06:09;;;;;;;13.32;12.07;;;;;24.30;99826.00;;;;2061735;28;20462;-65
2021/07/13 01:07:13;;;;;;;14.80;13.40;;;;;24.30;99835.00;;;;2045719;28;20295;-65
2021/07/13 01:08:36;;;;;;;13.50;12.20;;;;;24.30;99831.00;;;;2043700;28;20220;-65
2021/07/13 01:09:59;;;;;;;13.27;11.98;;;;;24.30;99834.00;;;;2054287;28;20219;-65
2021/07/13 01:11:09;;;;;;;12.07;10.85;;;;;24.10;99836.00;;;;2050820;28;20239;-66
2021/07/13 01:12:34;;;;;;;13.55;12.18;;;;;24.30;99838.00;;;;2053363;28;20222;-66
2021/07/13 01:14:00;;;;;;;12.90;11.70;;;;;24.30;99845.00;;;;2059552;28;20225;-66
2021/07/13 01:15:00;;;;;;;13.20;12.00;;;;;24.30;99842.00;;;;2051349;28;20215;-66
2021/07/13 01:16:09;;;;;;;13.43;12.30;;;;;24.30;99839.00;;;;2038527;29;20241;-66
2021/07/13 01:17:13;;;;;;;12.50;11.40;;;;;24.30;99845.00;;;;2038302;28;20204;-66
2021/07/13 01:18:21;;;;;;;13.73;12.32;;;;;24.30;99847.00;;;;2046858;29;20231;-66
2021/07/13 01:19:37;;;;;;;12.98;11.77;;;;;24.30;99847.00;;;;2052165;28;20216;-65
2021/07/13 01:20:52;;;;;;;13.02;11.73;;;;;24.30;99849.00;;;;2059033;28;20219;-65
2021/07/13 01:21:58;;;;;;;12.48;11.25;;;;;24.30;99848.00;;;;2059678;28;20216;-67
2021/07/13 01:23:28;;;;;;;13.57;12.20;;;;;24.30;99851.00;;;;2051368;28;20239;-65
2021/07/13 01:24:56;;;;;;;12.73;11.52;;;;;24.30;99849.00;;;;2023260;29;20222;-65
2021/07/13 01:26:13;;;;;;;12.35;11.15;;;;;24.30;99853.00;;;;2040694;28;20710;-65
2021/07/13 01:27:32;;;;;;;11.50;10.50;;;;;24.30;99851.00;;;;2055701;28;20219;-65
2021/07/13 01:28:39;;;;;;;12.80;11.60;;;;;24.30;99847.00;;;;2059594;28;20318;-65
2021/07/13 01:29:40;;;;;;;12.63;10.88;;;;;24.30;99850.00;;;;2043973;29;20228;-65
2021/07/13 01:30:42;;;;;;;12.83;11.53;;;;;24.30;99846.00;;;;2035662;29;20213;-65
2021/07/13 01:31:44;;;;;;;12.50;11.40;;;;;24.30;99842.00;;;;2050826;28;20302;-65
2021/07/13 01:32:47;;;;;;;12.52;11.23;;;;;24.30;99844.00;;;;2059628;28;20265;-65
2021/07/13 01:33:53;;;;;;;12.43;11.25;;;;;24.30;99842.00;;;;2059780;28;20600;-65
2021/07/13 01:35:00;;;;;;;11.70;10.70;;;;;24.30;99838.00;;;;2060468;28;20219;-65
2021/07/13 01:36:08;;;;;;;11.20;10.20;;;;;24.30;99847.00;;;;2042580;28;20238;-65
2021/07/13 01:37:09;;;;;;;11.20;10.10;;;;;24.30;99843.00;;;;2051173;28;20216;-65
2021/07/13 01:38:09;;;;;;;11.13;10.03;;;;;24.30;99842.00;;;;2050313;28;20220;-65
2021/07/13 01:39:10;;;;;;;11.53;10.43;;;;;24.30;99839.00;;;;2037857;29;20220;-65
2021/07/13 01:40:10;;;;;;;12.47;11.27;;;;;24.30;99834.00;;;;2042406;29;20220;-65
2021/07/13 01:41:13;;;;;;;10.70;9.70;;;;;24.30;99830.00;;;;2050844;28;20220;-65
2021/07/13 01:42:13;;;;;;;10.93;9.93;;;;;24.30;99831.00;;;;2050906;28;20216;-65
2021/07/13 01:43:13;;;;;;;11.87;10.87;;;;;24.30;99827.00;;;;2051301;28;20231;-65
2021/07/13 01:44:14;;;;;;;12.60;11.50;;;;;24.30;99834.00;;;;2043334;29;20200;-66
2021/07/13 01:45:15;;;;;;;11.53;10.43;;;;;24.30;99829.00;;;;2042698;29;20215;-65
2021/07/13 01:46:15;;;;;;;12.83;10.27;;;;;24.30;99830.00;;;;2042651;29;20228;-65
2021/07/13 01:47:16;;;;;;;11.50;10.50;;;;;24.30;99830.00;;;;2026955;29;20961;-65
2021/07/13 01:48:16;;;;;;;11.00;9.90;;;;;24.30;99827.00;;;;2034769;29;20206;-65
2021/07/13 01:49:21;;;;;;;10.67;9.77;;;;;24.30;99831.00;;;;2046467;28;20232;-65
2021/07/13 01:50:21;;;;;;;11.13;10.13;;;;;24.30;99835.00;;;;2042942;28;20240;-65
2021/07/13 01:51:22;;;;;;;11.20;10.20;;;;;24.30;99827.00;;;;2051078;28;20286;-66
2021/07/13 01:52:23;;;;;;;10.87;9.90;;;;;24.30;99830.00;;;;2043430;29;20224;-65
2021/07/13 01:53:23;;;;;;;11.10;10.10;;;;;24.30;99824.00;;;;2042518;29;20482;-65
2021/07/13 01:54:25;;;;;;;10.77;9.87;;;;;24.30;99826.00;;;;2050315;28;20253;-67
2021/07/13 01:55:25;;;;;;;10.40;9.45;;;;;24.30;99828.00;;;;2043148;29;21090;-65
2021/07/13 01:56:28;;;;;;;10.63;9.70;;;;;24.30;99829.00;;;;2050743;28;20216;-65
2021/07/13 01:57:29;;;;;;;10.85;9.85;;;;;24.30;99827.00;;;;2050776;28;20307;-65
2021/07/13 01:58:29;;;;;;;10.40;9.40;;;;;24.30;99826.00;;;;2042831;29;20227;-65
2021/07/13 01:59:30;;;;;;;10.50;9.53;;;;;24.30;99828.00;;;;2042957;29;20284;-65
2021/07/13 02:00:30;;;;;;;11.17;10.17;;;;;24.30;99835.00;;;;2042220;29;20465;-65
2021/07/13 02:01:31;;;;;;;10.93;9.90;;;;;24.30;99830.00;;;;2051584;28;20223;-65
2021/07/13 02:02:32;;;;;;;9.67;8.77;;;;;24.30;99824.00;;;;2051416;28;20221;-65
2021/07/13 02:03:32;;;;;;;9.53;8.63;;;;;24.30;99828.00;;;;2043670;29;20235;-65
2021/07/13 02:04:33;;;;;;;10.40;9.50;;;;;24.30;99826.00;;;;2055932;28;20292;-65
2021/07/13 02:05:34;;;;;;;10.23;9.32;;;;;24.30;99819.00;;;;2045339;28;20361;-65
2021/07/13 02:06:34;;;;;;;11.00;9.90;;;;;24.40;99825.00;;;;2045516;28;20831;-65
2021/07/13 02:07:35;;;;;;;10.03;9.17;;;;;24.30;99826.00;;;;2051454;28;20220;-65
2021/07/13 02:08:39;;;;;;;10.20;9.20;;;;;24.30;99825.00;;;;2050957;28;20258;-65
2021/07/13 02:09:40;;;;;;;9.55;8.75;;;;;24.30;99825.00;;;;2042512;28;20866;-65
2021/07/13 02:10:40;;;;;;;9.87;9.07;;;;;24.30;99823.00;;;;2041548;29;20228;-65
2021/07/13 02:11:44;;;;;;;9.20;8.40;;;;;24.30;99818.00;;;;2041328;29;20739;-65
2021/07/13 02:12:45;;;;;;;9.25;8.45;;;;;24.30;99812.00;;;;2051014;28;20224;-65
2021/07/13 02:13:45;;;;;;;9.50;8.70;;;;;24.30;99809.00;;;;2059601;28;20226;-65
2021/07/13 02:14:46;;;;;;;9.80;9.00;;;;;24.40;99808.00;;;;2059794;28;20724;-65
2021/07/13 02:15:46;;;;;;;9.60;8.80;;;;;24.40;99812.00;;;;2060100;28;20203;-65
2021/07/13 02:16:47;;;;;;;9.90;9.00;;;;;24.40;99801.00;;;;2059538;28;20277;-65
2021/07/13 02:17:50;;;;;;;9.63;8.83;;;;;24.30;99804.00;;;;2059144;28;20257;-65
2021/07/13 02:18:51;;;;;;;9.63;8.77;;;;;24.40;99807.00;;;;2058997;28;20313;-65
2021/07/13 02:19:51;;;;;;;9.13;8.33;;;;;24.40;99805.00;;;;2053336;28;20344;-65
2021/07/13 02:20:52;;;;;;;9.33;8.50;;;;;24.30;99808.00;;;;2058927;28;20279;-65
2021/07/13 02:21:52;;;;;;;9.25;8.45;;;;;24.30;99804.00;;;;2051287;28;20212;-65
2021/07/13 02:22:53;;;;;;;8.87;8.07;;;;;24.40;99802.00;;;;2051068;28;20735;-65
2021/07/13 02:23:53;;;;;;;8.87;8.07;;;;;24.40;99794.00;;;;2051380;28;20310;-65
2021/07/13 02:24:53;;;;;;;8.83;8.03;;;;;24.40;99802.00;;;;2050845;28;20220;-65
2021/07/13 02:25:55;;;;;;;9.03;8.33;;;;;24.40;99793.00;;;;2059072;28;20222;-65
2021/07/13 02:26:59;;;;;;;9.13;8.43;;;;;24.40;99797.00;;;;2050299;28;20299;-65
2021/07/13 02:28:18;;;;;;;9.85;8.30;;;;;24.40;99801.00;;;;2042970;29;20224;-66
2021/07/13 02:29:37;;;;;;;9.73;8.65;;;;;24.40;99801.00;;;;2058833;28;20215;-65
2021/07/13 02:30:39;;;;;;;9.10;8.30;;;;;24.40;99805.00;;;;2050130;28;20256;-65
2021/07/13 02:31:43;;;;;;;8.85;8.05;;;;;24.40;99799.00;;;;2042857;28;20229;-65
2021/07/13 02:33:23;;;;;;;9.20;8.40;;;;;24.30;99799.00;;;;2043643;28;20296;-65
2021/07/13 02:34:26;;;;;;;8.65;7.85;;;;;24.30;99797.00;;;;2028988;29;20224;-65
2021/07/13 02:35:40;;;;;;;8.70;8.00;;;;;24.30;99793.00;;;;2034964;29;20214;-65
2021/07/13 02:36:46;;;;;;;9.10;8.30;;;;;24.30;99803.00;;;;2029492;29;20213;-65
2021/07/13 02:37:47;;;;;;;8.75;8.02;;;;;24.30;99801.00;;;;2027854;29;20307;-65
2021/07/13 02:38:47;;;;;;;8.53;7.83;;;;;24.30;99796.00;;;;2027307;29;20241;-65
2021/07/13 02:39:47;;;;;;;8.43;7.80;;;;;24.30;99792.00;;;;2031430;29;20478;-65
2021/07/13 02:40:48;;;;;;;8.03;7.33;;;;;24.30;99792.00;;;;2042044;29;20929;-65
2021/07/13 02:41:50;;;;;;;9.30;8.00;;;;;24.30;99796.00;;;;2041826;28;20564;-65
2021/07/13 02:42:50;;;;;;;8.50;7.50;;;;;24.30;99794.00;;;;2041872;29;20286;-65
2021/07/13 02:43:51;;;;;;;8.83;8.13;;;;;24.30;99791.00;;;;2050585;28;20287;-65
2021/07/13 02:44:53;;;;;;;8.67;7.97;;;;;24.30;99791.00;;;;2050458;28;20303;-65
2021/07/13 02:45:53;;;;;;;8.23;7.53;;;;;24.30;99787.00;;;;2050317;28;21279;-66
2021/07/13 02:46:53;;;;;;;8.43;7.73;;;;;24.30;99788.00;;;;2050653;28;20219;-65
2021/07/13 02:47:55;;;;;;;8.53;7.83;;;;;24.30;99794.00;;;;2042340;29;20224;-65
2021/07/13 02:48:56;;;;;;;7.93;7.25;;;;;24.30;99788.00;;;;2049833;28;20235;-65
2021/07/13 02:49:56;;;;;;;8.30;7.43;;;;;24.30;99789.00;;;;2041747;29;20212;-65
2021/07/13 02:50:56;;;;;;;8.43;7.70;;;;;24.30;99784.00;;;;2041172;29;20213;-65
2021/07/13 02:51:57;;;;;;;7.67;7.07;;;;;24.30;99788.00;;;;2050653;28;20232;-65
2021/07/13 02:52:57;;;;;;;7.50;6.87;;;;;24.30;99783.00;;;;2035457;29;20293;-65
2021/07/13 02:53:58;;;;;;;8.43;7.73;;;;;24.30;99796.00;;;;2043307;29;20204;-65
2021/07/13 02:55:06;;;;;;;8.00;7.30;;;;;24.30;99788.00;;;;2043080;29;20718;-66
2021/07/13 02:56:07;;;;;;;8.30;7.60;;;;;24.30;99786.00;;;;2047710;28;20227;-65
2021/07/13 02:57:08;;;;;;;8.10;7.40;;;;;24.30;99781.00;;;;2042538;29;20753;-65
2021/07/13 02:58:08;;;;;;;8.13;7.33;;;;;24.30;99783.00;;;;2042494;29;20221;-66
2021/07/13 02:59:08;;;;;;;7.00;6.40;;;;;24.30;99782.00;;;;2050416;28;20319;-65
2021/07/13 03:00:09;;;;;;;8.03;7.33;;;;;24.30;99778.00;;;;2043250;29;20224;-66
2021/07/13 03:01:10;;;;;;;8.02;7.32;;;;;24.30;99782.00;;;;2050675;28;20311;-65
2021/07/13 03:02:10;;;;;;;7.30;6.70;;;;;24.30;99773.00;;;;2051165;28;20574;-65
2021/07/13 03:03:10;;;;;;;8.17;7.40;;;;;24.30;99772.00;;;;2042904;29;20768;-65
2021/07/13 03:04:11;;;;;;;7.10;6.50;;;;;24.30;99777.00;;;;2043144;29;20705;-65
2021/07/13 03:05:15;;;;;;;8.00;7.40;;;;;24.30;99782.00;;;;2045029;29;20228;-65
2021/07/13 03:06:15;;;;;;;8.00;7.40;;;;;24.30;99775.00;;;;2042574;28;20228;-65
2021/07/13 03:07:16;;;;;;;8.00;7.30;;;;;24.30;99770.00;;;;2039352;29;20236;-65
2021/07/13 03:08:21;;;;;;;8.00;7.30;;;;;24.30;99770.00;;;;2042375;28;20255;-65
2021/07/13 03:09:21;;;;;;;7.57;6.97;;;;;24.30;99770.00;;;;2049959;28;20901;-65
2021/07/13 03:10:23;;;;;;;7.20;6.60;;;;;24.30;99773.00;;;;2049578;28;20243;-65
2021/07/13 03:11:23;;;;;;;8.00;7.30;;;;;24.30;99770.00;;;;2043100;28;20220;-65
2021/07/13 03:12:23;;;;;;;7.20;6.60;;;;;24.30;99773.00;;;;2043018;28;20224;-65
2021/07/13 03:13:24;;;;;;;7.73;7.10;;;;;24.30;99775.00;;;;2043260;29;20209;-65
2021/07/13 03:14:24;;;;;;;7.13;6.63;;;;;24.30;99767.00;;;;2051038;28;20227;-65
2021/07/13 03:15:27;;;;;;;7.37;6.77;;;;;24.30;99776.00;;;;2042652;29;20271;-65
2021/07/13 03:16:30;;;;;;;7.30;6.70;;;;;24.30;99768.00;;;;2034652;29;20954;-65
2021/07/13 03:17:30;;;;;;;6.97;6.38;;;;;24.30;99772.00;;;;2035215;29;20669;-65
2021/07/13 03:18:30;;;;;;;7.43;6.83;;;;;24.30;99769.00;;;;2042315;28;20253;-66
2021/07/13 03:19:31;;;;;;;7.70;7.10;;;;;24.30;99780.00;;;;2043120;29;20231;-65
2021/07/13 03:20:31;;;;;;;7.50;6.90;;;;;24.30;99775.00;;;;2042357;29;20221;-65
2021/07/13 03:21:34;;;;;;;7.47;6.87;;;;;24.30;99779.00;;;;2050897;28;20304;-65
2021/07/13 03:22:36;;;;;;;7.90;7.20;;;;;24.30;99784.00;;;;2051113;28;20818;-65
2021/07/13 03:23:37;;;;;;;7.25;6.65;;;;;24.30;99781.00;;;;2050097;28;20262;-65
2021/07/13 03:24:38;;;;;;;7.13;6.47;;;;;24.30;99777.00;;;;2034566;29;20247;-65
2021/07/13 03:25:39;;;;;;;7.13;6.47;;;;;24.30;99781.00;;;;2030444;29;20715;-65
2021/07/13 03:26:41;;;;;;;6.97;6.38;;;;;24.30;99780.00;;;;2038789;29;20228;-65
2021/07/13 03:27:42;;;;;;;7.40;6.80;;;;;24.30;99774.00;;;;2035553;28;20248;-65
2021/07/13 03:28:43;;;;;;;7.93;7.23;;;;;24.30;99782.00;;;;2035004;29;20229;-65
2021/07/13 03:29:44;;;;;;;6.97;6.43;;;;;24.30;99781.00;;;;2042048;29;20220;-65
2021/07/13 03:30:45;;;;;;;6.95;6.40;;;;;24.30;99772.00;;;;2041730;29;20223;-66
2021/07/13 03:31:45;;;;;;;6.87;6.37;;;;;24.30;99778.00;;;;2034467;29;20209;-65
2021/07/13 03:32:46;;;;;;;6.93;6.33;;;;;24.30;99783.00;;;;2042205;29;20275;-65
2021/07/13 03:33:47;;;;;;;7.32;6.72;;;;;24.30;99774.00;;;;2033301;29;20251;-65
2021/07/13 03:34:47;;;;;;;7.03;6.53;;;;;24.30;99775.00;;;;2042804;28;20220;-65
2021/07/13 03:35:48;;;;;;;7.97;7.17;;;;;24.20;99774.00;;;;2052980;28;20286;-65
2021/07/13 03:36:49;;;;;;;7.05;6.45;;;;;24.30;99769.00;;;;2055342;28;20598;-65
2021/07/13 03:37:49;;;;;;;7.40;6.80;;;;;24.30;99778.00;;;;2039332;29;20216;-65
2021/07/13 03:38:50;;;;;;;6.90;6.40;;;;;24.20;99779.00;;;;2042097;29;20224;-65
2021/07/13 03:39:50;;;;;;;6.97;6.43;;;;;24.20;99773.00;;;;2057169;28;20235;-65
2021/07/13 03:40:50;;;;;;;6.40;5.90;;;;;24.30;99771.00;;;;2041108;29;20294;-66
2021/07/13 03:41:51;;;;;;;6.23;5.77;;;;;24.20;99778.00;;;;2033902;29;20226;-65
2021/07/13 03:42:51;;;;;;;6.63;6.13;;;;;24.30;99774.00;;;;2049607;28;20220;-65
2021/07/13 03:43:52;;;;;;;6.97;6.37;;;;;24.20;99778.00;;;;2057663;28;20256;-65
2021/07/13 03:44:52;;;;;;;6.80;6.20;;;;;24.30;99778.00;;;;2049646;28;20733;-65
2021/07/13 03:45:53;;;;;;;7.03;6.10;;;;;24.20;99777.00;;;;2049832;28;20753;-65
2021/07/13 03:46:53;;;;;;;6.40;6.00;;;;;24.20;99781.00;;;;2034091;29;20677;-65
2021/07/13 03:47:55;;;;;;;6.87;6.27;;;;;24.20;99779.00;;;;2034634;29;20218;-65
2021/07/13 03:48:55;;;;;;;6.68;6.18;;;;;24.30;99770.00;;;;2059200;28;20602;-65
2021/07/13 03:49:56;;;;;;;6.90;6.30;;;;;24.20;99782.00;;;;2042622;29;20223;-65
2021/07/13 03:50:56;;;;;;;6.70;6.10;;;;;24.20;99772.00;;;;2034391;28;20212;-65
2021/07/13 03:51:57;;;;;;;6.47;5.90;;;;;24.20;99785.00;;;;2050257;28;20713;-65
2021/07/13 03:52:57;;;;;;;6.67;6.17;;;;;24.30;99777.00;;;;2058083;28;20218;-65
2021/07/13 03:53:57;;;;;;;6.40;5.90;;;;;24.30;99780.00;;;;2058277;28;20258;-65
2021/07/13 03:54:58;;;;;;;6.50;6.00;;;;;24.20;99781.00;;;;2057952;28;20700;-65
2021/07/13 03:55:58;;;;;;;6.00;5.50;;;;;24.20;99785.00;;;;2058343;28;20746;-65
2021/07/13 03:56:59;;;;;;;6.43;5.93;;;;;24.20;99784.00;;;;2059023;28;20769;-65
2021/07/13 03:57:59;;;;;;;6.27;5.77;;;;;24.20;99787.00;;;;2058722;28;20239;-65
2021/07/13 03:58:59;;;;;;;6.30;5.80;;;;;24.20;99779.00;;;;2058793;28;20222;-65
2021/07/13 04:00:00;;;;;;;6.33;5.83;;;;;24.30;99775.00;;;;2058919;28;20211;-65
2021/07/13 04:01:00;;;;;;;6.23;5.73;;;;;24.20;99779.00;;;;2048746;28;20219;-65
2021/07/13 04:02:00;;;;;;;6.50;6.00;;;;;24.30;99769.00;;;;2048357;28;20215;-65
2021/07/13 04:03:01;;;;;;;6.70;6.20;;;;;24.20;99775.00;;;;2057941;28;20327;-65
2021/07/13 04:04:02;;;;;;;6.80;6.20;;;;;24.20;99765.00;;;;2059526;28;20220;-65
2021/07/13 04:05:03;;;;;;;6.50;6.00;;;;;24.20;99772.00;;;;2061637;28;20310;-65
2021/07/13 04:06:03;;;;;;;6.47;5.97;;;;;24.20;99778.00;;;;2059490;28;20760;-65
2021/07/13 04:07:05;;;;;;;6.53;6.03;;;;;24.20;99776.00;;;;2050644;28;20272;-65
2021/07/13 04:08:05;;;;;;;6.20;5.70;;;;;24.20;99776.00;;;;2049995;28;20216;-65
2021/07/13 04:09:06;;;;;;;6.23;5.73;;;;;24.20;99776.00;;;;2058883;28;20215;-65
2021/07/13 04:10:07;;;;;;;6.70;6.10;;;;;24.20;99776.00;;;;2059105;28;20222;-65
2021/07/13 04:11:08;;;;;;;6.00;5.50;;;;;24.20;99775.00;;;;2058703;28;20211;-65
2021/07/13 04:12:08;;;;;;;6.57;6.07;;;;;24.20;99773.00;;;;2059270;28;20330;-65
2021/07/13 04:13:08;;;;;;;5.47;5.07;;;;;24.20;99781.00;;;;2058601;28;20203;-65
2021/07/13 04:14:09;;;;;;;6.47;5.97;;;;;24.20;99780.00;;;;2058520;28;20245;-65
2021/07/13 04:15:10;;;;;;;6.17;5.77;;;;;24.20;99778.00;;;;2058499;28;20214;-65
2021/07/13 04:16:10;;;;;;;5.83;5.33;;;;;24.20;99779.00;;;;2058479;28;20219;-66
2021/07/13 04:17:10;;;;;;;6.40;5.90;;;;;24.20;99782.00;;;;2049936;28;20858;-65
2021/07/13 04:18:11;;;;;;;6.40;5.90;;;;;24.20;99788.00;;;;2050512;28;20216;-65
2021/07/13 04:19:11;;;;;;;6.33;5.83;;;;;24.20;99779.00;;;;2050394;28;20232;-65
2021/07/13 04:20:12;;;;;;;6.67;6.07;;;;;24.20;99782.00;;;;2050343;28;20351;-65
2021/07/13 04:21:12;;;;;;;6.30;5.80;;;;;24.20;99782.00;;;;2058664;28;20266;-66
2021/07/13 04:22:12;;;;;;;6.07;5.60;;;;;24.20;99778.00;;;;2058349;28;20612;-66
2021/07/13 04:23:13;;;;;;;6.80;6.30;;;;;24.20;99777.00;;;;2058296;28;20811;-65
2021/07/13 04:24:13;;;;;;;5.70;5.20;;;;;24.20;99786.00;;;;2058027;28;20780;-65
2021/07/13 04:25:14;;;;;;;6.10;5.60;;;;;24.20;99781.00;;;;2049576;28;20707;-65
2021/07/13 04:26:14;;;;;;;6.30;5.80;;;;;24.20;99785.00;;;;2050551;28;20227;-65
2021/07/13 04:27:14;;;;;;;5.63;5.23;;;;;24.20;99782.00;;;;2059019;28;20261;-65
2021/07/13 04:28:15;;;;;;;5.97;5.50;;;;;24.20;99786.00;;;;2058754;28;20237;-65
2021/07/13 04:29:15;;;;;;;6.00;5.60;;;;;24.20;99780.00;;;;2058892;28;20211;-65
2021/07/13 04:30:16;;;;;;;6.07;5.57;;;;;24.20;99787.00;;;;2058223;28;20644;-65
2021/07/13 04:31:17;;;;;;;6.30;5.80;;;;;24.20;99786.00;;;;2058367;28;20563;-65
2021/07/13 04:32:18;;;;;;;5.65;5.25;;;;;24.20;99788.00;;;;2058317;28;20250;-65
2021/07/13 04:33:18;;;;;;;5.50;5.10;;;;;24.20;99793.00;;;;2057873;28;20246;-65
2021/07/13 04:34:19;;;;;;;5.70;5.30;;;;;24.20;99785.00;;;;2061328;28;20215;-66
2021/07/13 04:35:19;;;;;;;5.57;5.17;;;;;24.20;99792.00;;;;2059026;28;20297;-65
2021/07/13 04:36:19;;;;;;;6.50;6.00;;;;;24.20;99797.00;;;;2061307;28;20215;-65
2021/07/13 04:37:20;;;;;;;5.77;5.37;;;;;24.20;99787.00;;;;2059902;28;20733;-65
2021/07/13 04:38:20;;;;;;;6.20;5.70;;;;;24.20;99789.00;;;;2058399;28;20221;-65
2021/07/13 04:39:20;;;;;;;5.90;5.40;;;;;24.20;99788.00;;;;2059063;28;20219;-65
2021/07/13 04:40:21;;;;;;;5.80;5.40;;;;;24.20;99793.00;;;;2058289;28;20211;-65
2021/07/13 04:41:21;;;;;;;5.70;5.30;;;;;24.20;99783.00;;;;2050578;28;20230;-65
2021/07/13 04:42:21;;;;;;;6.07;5.57;;;;;24.20;99790.00;;;;2050564;28;20269;-65
2021/07/13 04:43:22;;;;;;;5.47;4.97;;;;;24.20;99791.00;;;;2058404;28;20313;-65
2021/07/13 04:44:22;;;;;;;5.80;5.30;;;;;24.20;99779.00;;;;2058483;28;20689;-65
2021/07/13 04:45:23;;;;;;;6.30;5.80;;;;;24.20;99785.00;;;;2058079;28;20219;-65
2021/07/13 04:46:23;;;;;;;6.00;5.50;;;;;24.20;99788.00;;;;2058340;28;20222;-65
2021/07/13 04:47:23;;;;;;;5.90;5.50;;;;;24.20;99790.00;;;;2058763;28;20310;-65
2021/07/13 04:48:23;;;;;;;5.37;4.97;;;;;24.20;99789.00;;;;2058920;28;20286;-66
2021/07/13 04:49:27;;;;;;;5.20;4.80;;;;;24.20;99794.00;;;;2058991;28;20215;-65
2021/07/13 04:50:27;;;;;;;5.95;5.50;;;;;24.20;99798.00;;;;2058316;28;20234;-67
2021/07/13 04:51:28;;;;;;;5.50;5.10;;;;;24.20;99789.00;;;;2057790;28;20215;-65
2021/07/13 04:52:28;;;;;;;5.70;5.17;;;;;24.20;99789.00;;;;2058230;28;20203;-66
2021/07/13 04:53:29;;;;;;;5.00;4.70;;;;;24.20;99792.00;;;;2058319;28;20241;-65
2021/07/13 04:54:31;;;;;;;4.97;4.67;;;;;24.20;99787.00;;;;2058369;28;20207;-65
2021/07/13 04:55:31;;;;;;;5.30;4.90;;;;;24.20;99796.00;;;;2058536;28;20219;-65
2021/07/13 04:56:32;;;;;;;6.00;5.50;;;;;24.20;99788.00;;;;2058847;28;20215;-65
2021/07/13 04:57:32;;;;;;;5.60;5.20;;;;;24.20;99788.00;;;;2059140;28;20235;-65
2021/07/13 04:58:32;;;;;;;6.00;5.50;;;;;24.20;99786.00;;;;2058987;28;20215;-65
2021/07/13 04:59:33;;;;;;;5.07;4.67;;;;;24.20;99783.00;;;;2058613;28;20269;-65
2021/07/13 05:00:33;;;;;;;5.20;4.80;;;;;24.20;99786.00;;;;2057635;28;20603;-65
2021/07/13 05:01:33;;;;;;;5.50;5.00;;;;;24.20;99786.00;;;;2058323;28;20218;-65
2021/07/13 05:02:34;;;;;;;4.97;4.60;;;;;24.20;99788.00;;;;2058097;28;20219;-65
2021/07/13 05:03:34;;;;;;;5.20;4.80;;;;;24.20;99784.00;;;;2058322;28;20239;-65
2021/07/13 05:04:35;;;;;;;5.40;5.00;;;;;24.20;99788.00;;;;2062535;28;20207;-66
2021/07/13 05:05:35;;;;;;;5.80;5.40;;;;;24.20;99788.00;;;;2059926;28;20199;-65
2021/07/13 05:06:36;;;;;;;5.30;4.90;;;;;24.20;99789.00;;;;2059032;28;20245;-65
2021/07/13 05:07:43;;;;;;;6.10;5.70;;;;;24.20;99788.00;;;;2059093;28;20211;-65